Time;durP1;ratioP1;P1;durP2;ratioP2;P2;SDS_P1;SDS_P2;PMS_P1;PMS_P2;Temp;Humidity;BMP_temperature;BMP_pressure;BME280_temperature;BME280_humidity;BME280_pressure;Samples;Min_cycle;Max_cycle;Signal;HPM_P1;HPM_P2
2022/03/12 00:01:54;;;;;;;6.47;4.80;;;;;;;0.90;42.36;101364.16;6188894;23;20025;-86
2022/03/12 00:04:21;;;;;;;10.95;5.72;;;;;;;0.82;42.38;101364.72;6186457;23;20111;-86
2022/03/12 00:06:47;;;;;;;10.57;4.60;;;;;;;0.84;42.73;101364.78;6209541;23;20081;-86
2022/03/12 00:09:14;;;;;;;10.57;5.60;;;;;;;0.82;42.46;101367.31;6211835;23;20035;-85
2022/03/12 00:11:45;;;;;;;11.55;5.00;;;;;;;0.77;42.61;101362.75;6210518;23;20077;-85
2022/03/12 00:14:12;;;;;;;14.60;6.35;;;;;;;0.68;43.12;101365.84;6214668;23;20028;-86
2022/03/12 00:16:40;;;;;;;7.90;5.20;;;;;;;0.69;42.70;101358.97;6209558;23;20335;-86
2022/03/12 00:19:07;;;;;;;10.45;5.32;;;;;;;0.68;43.12;101364.94;6209718;23;20028;-87
2022/03/12 00:21:35;;;;;;;11.77;6.03;;;;;;;0.63;43.00;101359.59;6184408;23;20512;-85
2022/03/12 00:24:03;;;;;;;9.70;5.68;;;;;;;0.56;43.72;101348.16;6182916;23;20047;-88
2022/03/12 00:26:31;;;;;;;7.20;4.57;;;;;;;0.53;43.50;101354.88;6208171;23;20038;-87
2022/03/12 00:28:59;;;;;;;8.00;6.05;;;;;;;0.49;43.50;101356.44;6235604;22;20024;-88
2022/03/12 00:31:27;;;;;;;11.80;6.45;;;;;;;0.48;43.83;101350.41;6187725;23;20047;-87
2022/03/12 00:33:54;;;;;;;10.00;5.90;;;;;;;0.44;43.90;101348.53;6185604;23;20023;-85
2022/03/12 00:36:21;;;;;;;9.48;4.95;;;;;;;0.45;43.96;101352.81;6209056;23;20051;-85
2022/03/12 00:38:49;;;;;;;14.65;6.63;;;;;;;0.45;44.01;101351.97;6185226;23;20426;-87
2022/03/12 00:41:17;;;;;;;13.18;5.63;;;;;;;0.45;43.78;101337.38;6209084;23;20012;-88
2022/03/12 00:43:46;;;;;;;9.50;5.57;;;;;;;0.46;43.97;101346.00;6186583;23;20027;-87
2022/03/12 00:46:14;;;;;;;11.32;5.20;;;;;;;0.40;43.79;101338.00;6188384;23;20024;-86
2022/03/12 00:48:41;;;;;;;8.18;5.70;;;;;;;0.40;44.20;101338.88;6188801;23;20031;-88
2022/03/12 00:51:11;;;;;;;9.20;5.03;;;;;;;0.36;44.13;101336.09;6214279;23;20502;-86
2022/03/12 00:53:44;;;;;;;9.77;5.68;;;;;;;0.30;44.18;101340.19;6213186;23;20372;-85
2022/03/12 00:56:11;;;;;;;9.80;5.82;;;;;;;0.26;43.70;101335.72;6214281;23;20024;-87
2022/03/12 00:58:45;;;;;;;9.55;4.70;;;;;;;0.29;44.04;101337.53;6213536;23;20066;-87
2022/03/12 01:01:12;;;;;;;7.10;4.75;;;;;;;0.26;44.07;101330.56;6190026;23;20032;-85
2022/03/12 01:03:40;;;;;;;18.55;6.78;;;;;;;0.21;43.84;101337.19;6187661;23;20087;-85
2022/03/12 01:06:08;;;;;;;9.85;5.15;;;;;;;0.20;44.36;101326.84;6193150;23;20031;-85
2022/03/12 01:08:36;;;;;;;8.88;5.20;;;;;;;0.18;44.33;101325.88;6193643;23;20070;-85
2022/03/12 01:11:08;;;;;;;8.23;6.10;;;;;;;0.17;44.63;101330.16;6218883;23;20485;-84
2022/03/12 01:13:34;;;;;;;11.18;6.63;;;;;;;0.20;44.28;101327.72;6196877;23;20103;-85
2022/03/12 01:16:01;;;;;;;8.10;4.63;;;;;;;0.16;44.09;101329.25;6196788;23;20024;-84
2022/03/12 01:18:29;;;;;;;11.52;5.88;;;;;;;0.15;44.04;101327.50;6197088;23;20382;-85
2022/03/12 01:20:56;;;;;;;9.20;5.57;;;;;;;0.15;44.47;101322.34;6212465;23;20028;-84
2022/03/12 01:23:26;;;;;;;9.40;5.25;;;;;;;0.13;43.78;101333.38;6209517;23;20031;-85
2022/03/12 01:25:54;;;;;;;7.25;5.10;;;;;;;0.13;43.94;101328.22;6186788;23;20051;-85
2022/03/12 01:28:21;;;;;;;9.18;5.60;;;;;;;0.05;44.17;101327.88;6185086;23;20023;-85
2022/03/12 01:30:47;;;;;;;8.82;5.60;;;;;;;-0.02;44.46;101334.47;6185711;23;20027;-86
2022/03/12 01:33:14;;;;;;;5.90;4.40;;;;;;;-0.04;44.56;101330.06;6233499;23;20051;-85
2022/03/12 01:35:41;;;;;;;10.27;5.63;;;;;;;-0.05;44.63;101331.75;6205707;23;20134;-85
2022/03/12 01:38:08;;;;;;;6.43;4.40;;;;;;;-0.03;44.68;101330.16;6207895;23;20505;-85
2022/03/12 01:40:36;;;;;;;6.00;4.80;;;;;;;-0.07;44.25;101328.22;6182818;23;20035;-84
2022/03/12 01:43:04;;;;;;;9.05;5.00;;;;;;;-0.10;44.62;101325.53;6208794;23;20136;-85
2022/03/12 01:45:32;;;;;;;5.72;4.35;;;;;;;-0.09;44.40;101331.53;6208241;23;20024;-85
2022/03/12 01:48:05;;;;;;;8.48;5.45;;;;;;;0.00;43.55;101326.84;6211186;23;20605;-85
2022/03/12 01:50:37;;;;;;;5.97;4.57;;;;;;;-0.02;43.96;101324.16;6234015;23;20324;-85
2022/03/12 01:53:13;;;;;;;7.47;4.68;;;;;;;-0.04;43.61;101327.47;6182013;23;20051;-85
2022/03/12 01:55:40;;;;;;;9.30;4.72;;;;;;;-0.04;43.68;101323.22;6207599;23;20032;-85
2022/03/12 01:58:09;;;;;;;8.13;4.95;;;;;;;-0.04;44.09;101315.50;6182086;23;20020;-84
2022/03/12 02:00:48;;;;;;;9.02;4.47;;;;;;;-0.03;43.88;101312.13;6208809;23;20032;-85
2022/03/12 02:03:18;;;;;;;8.98;5.38;;;;;;;-0.01;43.44;101304.47;6182134;23;20016;-84
2022/03/12 02:05:45;;;;;;;8.00;4.55;;;;;;;0.03;42.88;101305.47;6181924;23;20028;-85
2022/03/12 02:08:14;;;;;;;7.07;4.80;;;;;;;0.09;42.66;101304.06;6207955;23;20031;-85
2022/03/12 02:10:43;;;;;;;7.35;4.38;;;;;;;0.08;42.57;101309.13;6181701;23;20024;-85
2022/03/12 02:13:10;;;;;;;10.27;4.20;;;;;;;0.06;42.72;101301.34;6183757;23;20016;-85
2022/03/12 02:15:36;;;;;;;10.40;5.75;;;;;;;0.05;43.23;101293.56;6181561;23;20020;-84
2022/03/12 02:18:03;;;;;;;7.00;5.47;;;;;;;0.01;42.92;101295.09;6207711;23;20649;-85
2022/03/12 02:20:30;;;;;;;5.68;4.63;;;;;;;-0.01;42.72;101299.31;6181122;23;20198;-84
2022/03/12 02:22:59;;;;;;;6.68;4.40;;;;;;;-0.05;43.31;101295.72;6206539;23;20016;-85
2022/03/12 02:25:34;;;;;;;6.00;4.43;;;;;;;-0.11;43.34;101286.84;6185089;23;20671;-85
2022/03/12 02:28:04;;;;;;;6.93;4.70;;;;;;;-0.11;43.22;101284.28;6209423;23;20110;-85
2022/03/12 02:30:34;;;;;;;7.90;4.60;;;;;;;-0.18;42.89;101284.00;6187733;23;20051;-85
2022/03/12 02:33:05;;;;;;;5.50;4.03;;;;;;;-0.22;43.31;101300.13;6209521;23;20016;-85
2022/03/12 02:35:35;;;;;;;5.85;4.57;;;;;;;-0.22;42.89;101306.94;6208561;23;20355;-85
2022/03/12 02:38:07;;;;;;;8.93;4.13;;;;;;;-0.19;42.62;101297.66;6186075;23;20031;-85
2022/03/12 02:40:35;;;;;;;7.88;4.18;;;;;;;-0.21;42.81;101299.31;6184115;23;20350;-85
2022/03/12 02:43:03;;;;;;;8.27;4.22;;;;;;;-0.22;42.82;101296.63;6212016;23;20091;-85
2022/03/12 02:45:30;;;;;;;7.75;4.82;;;;;;;-0.26;43.21;101293.06;6209428;23;20105;-85
2022/03/12 02:47:57;;;;;;;6.10;4.38;;;;;;;-0.30;42.77;101293.75;6186710;23;20028;-85
2022/03/12 02:50:26;;;;;;;8.52;4.85;;;;;;;-0.29;42.76;101304.91;6184334;23;20024;-85
2022/03/12 02:52:52;;;;;;;6.22;4.15;;;;;;;-0.30;42.74;101303.13;6208633;23;20070;-85
2022/03/12 02:55:25;;;;;;;5.55;3.95;;;;;;;-0.32;42.75;101305.66;6184378;23;20027;-85
2022/03/12 02:57:53;;;;;;;7.88;4.47;;;;;;;-0.39;43.30;101299.34;6183995;23;20020;-85
2022/03/12 03:00:21;;;;;;;6.55;4.18;;;;;;;-0.48;43.11;101296.34;6211514;23;20359;-85
2022/03/12 03:02:52;;;;;;;9.18;3.85;;;;;;;-0.50;42.83;101303.09;6207733;23;20022;-85
2022/03/12 03:05:20;;;;;;;5.90;3.97;;;;;;;-0.53;43.19;101306.41;6185327;23;20044;-85
2022/03/12 03:07:51;;;;;;;4.63;3.42;;;;;;;-0.55;42.69;101304.56;6209544;23;20072;-84
2022/03/12 03:10:39;;;;;;;7.30;4.25;;;;;;;-0.55;43.04;101300.34;6208742;23;20024;-85
2022/03/12 03:13:18;;;;;;;7.35;5.10;;;;;;;-0.54;42.57;101296.06;6209030;23;20332;-84
2022/03/12 03:16:00;;;;;;;7.10;5.05;;;;;;;-0.54;42.89;101294.34;6235715;23;20031;-85
2022/03/12 03:18:32;;;;;;;6.05;3.83;;;;;;;-0.57;42.82;101294.22;6184617;23;20031;-85
2022/03/12 03:21:01;;;;;;;7.38;4.75;;;;;;;-0.56;42.93;101297.66;6182127;23;20034;-84
2022/03/12 03:23:31;;;;;;;7.00;3.72;;;;;;;-0.58;42.91;101307.03;6234104;23;20020;-84
2022/03/12 03:25:57;;;;;;;7.22;3.80;;;;;;;-0.68;42.96;101315.97;6181520;23;20359;-84
2022/03/12 03:28:24;;;;;;;6.40;4.20;;;;;;;-0.69;43.05;101309.97;6208952;23;20344;-84
2022/03/12 03:30:50;;;;;;;8.25;5.00;;;;;;;-0.69;43.04;101309.97;6210071;23;20016;-85
2022/03/12 03:33:26;;;;;;;8.85;4.25;;;;;;;-0.70;43.44;101308.19;6207557;23;20028;-85
2022/03/12 03:35:52;;;;;;;6.15;4.05;;;;;;;-0.64;42.73;101301.56;6208991;23;20082;-84
2022/03/12 03:38:19;;;;;;;7.68;5.15;;;;;;;-0.62;43.18;101297.41;6207690;23;20036;-85
2022/03/12 03:40:47;;;;;;;7.30;3.63;;;;;;;-0.64;42.78;101305.03;6209740;23;20455;-85
2022/03/12 03:43:17;;;;;;;4.57;4.05;;;;;;;-0.69;42.89;101303.94;6210350;23;20071;-85
2022/03/12 03:45:46;;;;;;;5.47;4.22;;;;;;;-0.71;42.76;101311.56;6209523;23;20059;-85
2022/03/12 03:48:18;;;;;;;6.55;4.13;;;;;;;-0.77;43.17;101308.72;6211447;23;20120;-85
2022/03/12 03:50:46;;;;;;;8.10;4.68;;;;;;;-0.82;42.91;101320.47;6208912;23;20020;-85
2022/03/12 03:53:18;;;;;;;8.48;4.45;;;;;;;-0.89;43.12;101323.53;6209599;23;20059;-84
2022/03/12 03:55:46;;;;;;;9.25;4.18;;;;;;;-0.95;43.85;101320.66;6210339;23;20764;-84
2022/03/12 03:58:14;;;;;;;7.50;4.07;;;;;;;-0.94;43.58;101317.28;6190469;23;20339;-85
2022/03/12 04:00:54;;;;;;;4.60;3.42;;;;;;;-0.87;43.40;101327.94;6216469;23;20024;-85
2022/03/12 04:03:20;;;;;;;6.50;3.78;;;;;;;-0.84;43.28;101328.09;6213543;23;20020;-84
2022/03/12 04:05:47;;;;;;;7.13;3.85;;;;;;;-0.87;43.52;101322.81;6189079;23;20382;-85
2022/03/12 04:08:14;;;;;;;6.68;4.05;;;;;;;-0.92;43.65;101323.41;6186617;23;20098;-85
2022/03/12 04:10:40;;;;;;;6.53;4.00;;;;;;;-0.95;43.85;101312.97;6212888;23;20056;-85
2022/03/12 04:13:14;;;;;;;7.38;4.28;;;;;;;-0.97;44.05;101322.31;6188340;23;20023;-85
2022/03/12 04:15:41;;;;;;;10.07;4.03;;;;;;;-1.00;44.34;101321.34;6187980;23;20031;-85
2022/03/12 04:18:08;;;;;;;6.32;3.70;;;;;;;-1.02;43.80;101327.19;6213210;23;20020;-84
2022/03/12 04:20:36;;;;;;;4.47;3.53;;;;;;;-1.11;44.59;101322.47;6186166;23;20108;-85
2022/03/12 04:23:03;;;;;;;4.88;3.25;;;;;;;-1.15;44.24;101324.84;6212000;23;20031;-85
2022/03/12 04:25:31;;;;;;;9.63;4.32;;;;;;;-1.21;44.89;101331.44;6185630;23;20024;-85
2022/03/12 04:28:01;;;;;;;5.65;3.70;;;;;;;-1.27;44.67;101331.13;6189356;23;20059;-85
2022/03/12 04:30:28;;;;;;;9.38;4.05;;;;;;;-1.26;44.82;101327.75;6188403;23;20027;-85
2022/03/12 04:32:56;;;;;;;4.57;3.17;;;;;;;-1.22;44.46;101326.22;6211766;23;20164;-85
2022/03/12 04:35:23;;;;;;;6.70;4.75;;;;;;;-1.24;44.66;101327.81;6211023;23;20032;-85
2022/03/12 04:37:50;;;;;;;4.40;3.35;;;;;;;-1.23;45.05;101327.91;6185701;23;20024;-85
2022/03/12 04:40:23;;;;;;;5.13;3.67;;;;;;;-1.23;44.41;101329.59;6237085;22;20415;-85
2022/03/12 04:42:49;;;;;;;9.50;4.70;;;;;;;-1.16;44.42;101331.69;6237073;23;20027;-85
2022/03/12 04:45:25;;;;;;;7.13;3.83;;;;;;;-1.09;44.19;101328.59;6212232;23;20020;-85
2022/03/12 04:47:54;;;;;;;6.45;3.83;;;;;;;-1.07;43.94;101334.69;6213256;23;20020;-84
2022/03/12 04:50:23;;;;;;;3.67;2.95;;;;;;;-1.05;43.98;101332.19;6184100;23;20107;-84
2022/03/12 04:52:57;;;;;;;8.57;3.75;;;;;;;-1.07;43.56;101334.69;6211199;23;20023;-84
2022/03/12 04:55:26;;;;;;;5.25;3.53;;;;;;;-1.06;43.79;101333.00;6232991;23;20024;-85
2022/03/12 04:57:53;;;;;;;4.22;3.13;;;;;;;-1.10;43.88;101328.53;6184842;23;20031;-85
2022/03/12 05:00:30;;;;;;;5.82;3.47;;;;;;;-1.05;43.43;101333.06;6210208;23;20020;-85
2022/03/12 05:03:15;;;;;;;3.63;2.65;;;;;;;-1.09;43.70;101336.31;6209611;23;20360;-85
2022/03/12 05:05:45;;;;;;;8.98;4.00;;;;;;;-1.08;43.62;101343.22;6182936;23;20034;-85
2022/03/12 05:08:18;;;;;;;4.38;3.25;;;;;;;-1.11;43.77;101349.88;6208089;23;20050;-85
2022/03/12 05:10:50;;;;;;;9.85;3.88;;;;;;;-1.05;43.46;101347.63;6209401;23;20019;-84
2022/03/12 05:13:22;;;;;;;6.80;3.28;;;;;;;-1.03;43.50;101357.16;6180438;23;20016;-85
2022/03/12 05:15:51;;;;;;;5.88;3.80;;;;;;;-0.99;43.54;101350.50;6214229;23;20020;-85
2022/03/12 05:18:20;;;;;;;5.10;2.95;;;;;;;-0.95;43.34;101346.38;6185805;23;20603;-85
2022/03/12 05:20:47;;;;;;;6.10;3.42;;;;;;;-0.91;42.80;101350.84;6186331;23;20034;-85
2022/03/12 05:23:15;;;;;;;5.55;3.03;;;;;;;-0.91;42.38;101349.19;6184898;23;20022;-84
2022/03/12 05:25:42;;;;;;;5.45;3.40;;;;;;;-0.84;42.90;101352.94;6215935;23;20023;-85
2022/03/12 05:28:15;;;;;;;8.02;3.40;;;;;;;-0.81;41.84;101355.63;6193806;23;20028;-85
2022/03/12 05:30:46;;;;;;;3.63;2.85;;;;;;;-0.79;42.02;101353.16;6193839;23;20024;-85
2022/03/12 05:33:17;;;;;;;7.15;3.30;;;;;;;-0.77;42.29;101359.25;6219958;23;20020;-84
2022/03/12 05:35:53;;;;;;;5.82;3.40;;;;;;;-0.77;42.47;101372.09;6221139;23;20038;-85
2022/03/12 05:38:20;;;;;;;5.28;3.63;;;;;;;-0.78;41.99;101368.66;6199596;23;20228;-85
2022/03/12 05:40:48;;;;;;;3.53;2.95;;;;;;;-0.71;42.15;101373.28;6218296;23;20023;-85
2022/03/12 05:43:16;;;;;;;8.23;3.80;;;;;;;-0.62;41.86;101365.13;6192277;23;20494;-85
2022/03/12 05:45:48;;;;;;;5.43;3.22;;;;;;;-0.57;41.49;101365.38;6219531;23;20050;-85
2022/03/12 05:48:17;;;;;;;6.38;3.35;;;;;;;-0.55;42.05;101368.88;6216432;23;20107;-85
2022/03/12 05:50:48;;;;;;;6.22;3.08;;;;;;;-0.53;41.49;101363.00;6192343;23;20356;-85
2022/03/12 05:53:19;;;;;;;6.82;3.65;;;;;;;-0.53;42.12;101369.84;6190502;23;20110;-85
2022/03/12 05:55:47;;;;;;;5.10;3.00;;;;;;;-0.52;41.25;101380.19;6190943;23;20070;-84
2022/03/12 05:58:17;;;;;;;4.82;3.47;;;;;;;-0.50;41.74;101390.56;6215033;23;20024;-84
2022/03/12 06:00:45;;;;;;;3.97;2.72;;;;;;;-0.49;41.59;101384.59;6213868;23;20019;-85
2022/03/12 06:03:11;;;;;;;4.70;3.35;;;;;;;-0.47;41.59;101395.88;6213062;23;20119;-85
2022/03/12 06:05:40;;;;;;;7.55;3.20;;;;;;;-0.44;41.28;101389.94;6210822;23;20054;-85
2022/03/12 06:08:07;;;;;;;4.85;3.00;;;;;;;-0.38;40.93;101400.53;6213686;23;20035;-85
2022/03/12 06:10:37;;;;;;;4.05;3.25;;;;;;;-0.29;40.57;101394.97;6189778;23;20060;-85
2022/03/12 06:13:05;;;;;;;6.93;3.97;;;;;;;-0.16;39.82;101394.72;6185021;23;20026;-85
2022/03/12 06:15:39;;;;;;;6.88;3.55;;;;;;;-0.05;39.44;101398.69;6213228;23;20031;-85
2022/03/12 06:18:06;;;;;;;;;;;;;;;0.05;38.81;101393.94;6209372;23;20134;-84
2022/03/12 06:20:35;;;;;;;4.18;2.90;;;;;;;0.14;38.86;101395.28;6210580;23;19920;-84
2022/03/12 06:23:02;;;;;;;3.90;2.40;;;;;;;0.22;38.48;101389.56;6210750;23;20031;-85
2022/03/12 06:25:29;;;;;;;5.05;3.40;;;;;;;0.26;38.74;101400.09;6184322;23;20028;-85
2022/03/12 06:27:57;;;;;;;4.55;2.75;;;;;;;0.33;38.33;101404.69;6210808;23;20031;-86
2022/03/12 06:30:28;;;;;;;4.82;3.15;;;;;;;0.42;38.22;101396.50;6200660;23;20024;-83
2022/03/12 06:32:57;;;;;;;5.32;2.65;;;;;;;0.49;37.43;101400.22;6230269;23;20448;-85
2022/03/12 06:35:27;;;;;;;4.13;2.78;;;;;;;0.53;38.02;101399.53;6231615;23;20023;-85
2022/03/12 06:37:55;;;;;;;4.10;2.50;;;;;;;0.58;37.83;101404.91;6182195;23;20111;-85
2022/03/12 06:40:22;;;;;;;4.43;2.70;;;;;;;0.63;37.85;101411.16;6184125;23;20024;-85
2022/03/12 06:42:51;;;;;;;7.10;4.03;;;;;;;0.69;37.33;101415.66;6206430;23;20051;-85
2022/03/12 06:45:18;;;;;;;4.93;3.05;;;;;;;0.76;36.72;101417.72;6209757;23;20682;-85
2022/03/12 06:47:46;;;;;;;4.47;2.63;;;;;;;0.80;36.22;101411.88;6183638;23;20027;-85
2022/03/12 06:50:17;;;;;;;5.80;2.65;;;;;;;0.85;36.43;101420.69;6209436;23;20024;-85
2022/03/12 06:52:48;;;;;;;4.90;3.60;;;;;;;0.90;36.76;101428.59;6181578;23;20264;-86
2022/03/12 06:55:23;;;;;;;6.70;3.30;;;;;;;0.93;36.66;101424.47;6208988;23;20119;-87
2022/03/12 06:57:54;;;;;;;4.03;2.78;;;;;;;0.97;35.98;101421.19;6211041;23;20031;-86
2022/03/12 07:00:31;;;;;;;6.22;3.05;;;;;;;1.02;36.64;101429.13;6210390;23;20091;-86
2022/03/12 07:02:58;;;;;;;8.77;2.85;;;;;;;1.04;36.72;101430.06;6211403;23;20024;-88
2022/03/12 07:05:27;;;;;;;6.65;3.47;;;;;;;1.04;37.08;101424.91;6209373;23;20439;-87
2022/03/12 07:07:59;;;;;;;5.07;3.38;;;;;;;1.06;36.73;101433.59;6207253;23;20087;-84
2022/03/12 07:10:29;;;;;;;4.13;3.25;;;;;;;1.09;36.99;101430.28;6206561;23;20392;-85
2022/03/12 07:13:08;;;;;;;3.75;2.80;;;;;;;1.10;36.78;101432.91;6257472;22;20063;-82
2022/03/12 07:15:45;;;;;;;4.80;2.85;;;;;;;1.13;36.50;101438.22;6261215;23;20075;-83
2022/03/12 07:18:24;;;;;;;4.13;2.88;;;;;;;1.23;36.42;101439.47;6210665;23;20008;-83
2022/03/12 07:21:10;;;;;;;6.07;2.97;;;;;;;1.34;37.18;101444.19;6209835;23;20035;-82
2022/03/12 07:23:50;;;;;;;3.17;2.78;;;;;;;1.50;36.87;101446.59;6257129;23;20106;-83
2022/03/12 07:26:32;;;;;;;5.90;3.40;;;;;;;1.74;35.76;101449.28;6219141;23;20008;-83
2022/03/12 07:31:59;;;;;;;5.13;2.45;;;;;;;2.44;35.16;101455.41;6257408;22;20024;-83
2022/03/12 07:37:41;;;;;;;6.00;2.95;;;;;;;3.33;33.80;101456.78;6228922;23;20027;-83
2022/03/12 07:49:25;;;;;;;4.53;3.53;;;;;;;4.95;31.47;101455.59;6257089;22;20017;-83
2022/03/12 08:02:16;;;;;;;4.38;3.33;;;;;;;6.99;28.84;101439.47;6173552;23;20024;-84
2022/03/12 08:04:49;;;;;;;3.53;2.35;;;;;;;6.82;28.01;101446.06;6223222;22;20011;-88
2022/03/12 08:07:28;;;;;;;6.05;4.78;;;;;;;6.20;29.22;101453.47;6246937;22;20025;-89
2022/03/12 08:09:58;;;;;;;5.55;3.20;;;;;;;5.55;29.91;101445.88;6246997;22;20019;-91
2022/03/12 08:12:34;;;;;;;3.08;2.75;;;;;;;4.95;30.54;101453.00;6223752;22;20107;-88
2022/03/12 08:15:05;;;;;;;3.30;2.83;;;;;;;4.55;31.22;101455.38;6268818;22;20444;-91
2022/03/12 08:17:35;;;;;;;8.60;3.40;;;;;;;4.33;31.58;101448.69;6224548;22;20451;-90
2022/03/12 08:20:08;;;;;;;4.45;3.72;;;;;;;4.15;31.65;101451.63;6226997;22;20026;-87
2022/03/12 08:22:42;;;;;;;6.50;3.63;;;;;;;4.04;32.29;101443.53;6287975;22;20098;-92
2022/03/12 08:25:23;;;;;;;5.60;3.38;;;;;;;4.02;32.38;101447.78;6271650;22;20016;-91
2022/03/12 08:28:13;;;;;;;5.35;2.65;;;;;;;4.13;32.20;101441.22;6265827;22;20020;-91
2022/03/12 08:30:40;;;;;;;4.20;2.95;;;;;;;4.25;32.17;101442.38;6224390;22;20506;-90
2022/03/12 08:33:09;;;;;;;8.90;3.47;;;;;;;4.39;32.18;101435.03;6259870;22;20012;-93
2022/03/12 08:35:37;;;;;;;3.88;2.90;;;;;;;4.82;31.82;101432.78;6270443;22;20035;-92
2022/03/12 08:38:07;;;;;;;6.00;3.58;;;;;;;5.73;31.35;101435.94;6255514;22;20019;-89
2022/03/12 08:40:35;;;;;;;4.35;3.40;;;;;;;6.90;29.88;101431.50;6256163;22;20033;-91
2022/03/12 08:43:04;;;;;;;5.30;3.55;;;;;;;7.75;28.75;101425.97;6280625;22;20021;-89
2022/03/12 08:45:34;;;;;;;6.25;3.22;;;;;;;8.37;27.42;101424.22;6282568;22;20016;-89
2022/03/12 08:48:01;;;;;;;4.75;3.38;;;;;;;9.18;26.15;101415.53;6254701;22;20168;-89
2022/03/12 08:50:27;;;;;;;4.80;3.25;;;;;;;9.59;25.76;101430.69;6253300;22;20053;-87
2022/03/12 08:52:54;;;;;;;3.75;3.28;;;;;;;9.92;25.50;101429.16;6280056;22;20019;-91
2022/03/12 08:55:23;;;;;;;3.55;3.25;;;;;;;9.94;25.17;101429.16;6233706;22;20020;-89
2022/03/12 08:57:51;;;;;;;3.33;2.85;;;;;;;10.16;24.97;101422.31;6253622;22;20600;-88
2022/03/12 09:00:23;;;;;;;5.65;3.97;;;;;;;10.45;24.53;101412.88;6255022;22;20015;-92
2022/03/12 09:02:51;;;;;;;4.80;3.20;;;;;;;10.87;23.75;101412.16;6285386;22;20387;-88
2022/03/12 09:05:20;;;;;;;4.80;3.50;;;;;;;11.08;22.84;101411.28;6231227;22;20100;-90
2022/03/12 09:07:49;;;;;;;4.80;3.25;;;;;;;10.39;23.89;101414.59;6277572;22;20019;-89
2022/03/12 09:10:16;;;;;;;3.33;3.05;;;;;;;9.79;24.28;101409.03;6300215;22;20023;-88
2022/03/12 09:12:45;;;;;;;5.47;3.60;;;;;;;9.10;24.59;101409.38;6275317;22;20583;-88
2022/03/12 09:15:13;;;;;;;3.95;3.15;;;;;;;8.61;25.26;101409.72;6298943;22;20011;-92
2022/03/12 09:17:42;;;;;;;4.95;4.18;;;;;;;8.15;25.10;101412.63;6279845;22;20140;-89
2022/03/12 09:20:11;;;;;;;5.10;3.30;;;;;;;7.73;25.55;101418.97;6278197;22;20018;-91
2022/03/12 09:25:21;;;;;;;5.50;2.97;;;;;;;7.22;25.99;101424.25;6282715;22;20015;-90
2022/03/12 09:27:48;;;;;;;4.28;3.75;;;;;;;7.05;26.30;101410.06;6278355;22;20027;-91
2022/03/12 09:30:16;;;;;;;4.18;3.63;;;;;;;6.96;26.30;101413.34;6277341;22;20323;-91
2022/03/12 09:32:49;;;;;;;6.38;3.40;;;;;;;7.02;26.62;101410.00;6287118;22;20065;-89
2022/03/12 09:35:16;;;;;;;6.53;3.38;;;;;;;7.02;26.64;101413.47;6308446;22;20019;-89
2022/03/12 09:37:49;;;;;;;4.03;3.13;;;;;;;7.01;26.68;101408.25;6278513;22;20023;-89
2022/03/12 09:40:16;;;;;;;4.55;3.03;;;;;;;7.03;26.38;101410.03;6276224;22;20038;-89
2022/03/12 09:42:44;;;;;;;7.20;3.85;;;;;;;7.10;26.71;101401.50;6276202;22;20493;-90
2022/03/12 09:45:16;;;;;;;4.65;3.10;;;;;;;7.20;26.71;101401.66;6249566;22;20023;-89
2022/03/12 09:47:44;;;;;;;5.18;3.28;;;;;;;7.28;26.51;101402.63;6301392;22;20019;-92
2022/03/12 09:50:11;;;;;;;3.70;2.90;;;;;;;7.38;26.38;101401.03;6302022;22;20121;-91
2022/03/12 09:52:42;;;;;;;4.45;2.85;;;;;;;7.49;26.20;101399.50;6276805;22;20029;-89
2022/03/12 09:55:11;;;;;;;3.25;2.70;;;;;;;7.63;25.83;101404.94;6302977;22;20117;-89
2022/03/12 09:57:37;;;;;;;5.38;3.35;;;;;;;8.21;25.54;101399.69;6299851;22;20023;-89
2022/03/12 10:02:51;;;;;;;3.83;3.20;;;;;;;11.24;22.65;101385.97;6281223;22;20084;-92
2022/03/12 10:05:18;;;;;;;3.90;3.35;;;;;;;12.77;21.06;101382.03;6302216;22;20084;-89
2022/03/12 10:07:46;;;;;;;5.75;4.15;;;;;;;13.77;20.41;101388.25;6276955;22;20034;-90
2022/03/12 10:10:18;;;;;;;5.10;4.40;;;;;;;14.52;20.27;101385.59;6276532;22;20843;-89
2022/03/12 10:12:46;;;;;;;5.45;4.45;;;;;;;15.27;18.81;101382.75;6314185;22;20003;-92
2022/03/12 10:15:15;;;;;;;4.30;3.85;;;;;;;15.53;19.69;101383.16;6318797;22;20023;-90
2022/03/12 10:17:43;;;;;;;6.85;4.53;;;;;;;16.19;19.07;101381.06;6308411;22;20019;-91
2022/03/12 10:20:13;;;;;;;6.40;3.65;;;;;;;16.95;18.22;101383.84;6303244;22;20038;-89
2022/03/12 10:22:45;;;;;;;6.28;4.25;;;;;;;17.70;17.58;101388.97;6280108;22;20345;-94
2022/03/12 10:25:14;;;;;;;4.93;4.03;;;;;;;17.71;18.20;101381.91;6304771;22;20019;-85
2022/03/12 10:27:41;;;;;;;12.30;8.10;;;;;;;18.00;17.45;101375.81;6305129;22;20453;-88
2022/03/12 10:30:10;;;;;;;7.43;4.88;;;;;;;18.16;17.26;101376.25;6303635;22;20029;-85
2022/03/12 10:32:46;;;;;;;5.03;4.18;;;;;;;18.29;17.22;101376.75;6308805;22;20047;-85
2022/03/12 10:35:16;;;;;;;6.60;3.95;;;;;;;18.53;17.71;101372.50;6340009;22;20019;-88
2022/03/12 10:37:48;;;;;;;3.70;3.15;;;;;;;18.84;16.75;101376.84;6321057;22;20015;-89
2022/03/12 10:40:30;;;;;;;5.95;4.03;;;;;;;18.72;16.91;101380.75;6305853;22;20015;-85
2022/03/12 10:43:05;;;;;;;4.60;3.38;;;;;;;19.03;16.70;101371.84;6304015;22;20064;-88
2022/03/12 10:46:00;;;;;;;4.78;4.38;;;;;;;19.30;15.85;101378.00;6302563;22;20025;-88
2022/03/12 10:48:40;;;;;;;4.22;3.83;;;;;;;18.45;17.49;101377.19;6305398;22;20327;-88
2022/03/12 10:51:07;;;;;;;4.07;3.75;;;;;;;17.69;17.51;101372.22;6305803;22;20023;-88
2022/03/12 10:53:35;;;;;;;5.32;4.55;;;;;;;17.62;17.60;101377.72;6278179;22;20034;-88
2022/03/12 10:56:11;;;;;;;5.10;4.28;;;;;;;17.75;17.56;101378.25;6272505;22;20016;-89
2022/03/12 10:58:38;;;;;;;4.63;4.10;;;;;;;18.04;17.10;101369.53;6294029;22;20039;-88
2022/03/12 11:01:05;;;;;;;4.47;4.03;;;;;;;18.54;16.98;101362.75;6272853;22;20042;-90
2022/03/12 11:03:42;;;;;;;6.25;4.53;;;;;;;18.87;16.49;101362.63;6301265;22;20026;-88
2022/03/12 11:06:10;;;;;;;5.65;4.50;;;;;;;19.32;16.74;101348.75;6281343;22;20019;-88
2022/03/12 11:08:38;;;;;;;5.60;4.45;;;;;;;20.08;16.63;101348.75;6264099;22;20047;-88
2022/03/12 11:11:13;;;;;;;5.20;4.75;;;;;;;20.03;16.04;101342.75;6300690;22;20023;-96
2022/03/12 11:13:51;;;;;;;6.15;5.00;;;;;;;20.32;16.29;101341.59;6329722;22;20038;-93
2022/03/12 11:16:24;;;;;;;5.10;4.45;;;;;;;20.62;16.12;101339.56;6300732;22;20019;-87
2022/03/12 11:18:54;;;;;;;7.40;4.93;;;;;;;20.63;16.49;101340.41;6288890;22;20019;-91
2022/03/12 11:21:55;;;;;;;5.30;4.40;;;;;;;21.46;15.69;101342.28;6305021;22;20022;-89
2022/03/12 11:24:32;;;;;;;6.13;4.72;;;;;;;22.33;15.53;101343.72;6279517;22;20019;-88
2022/03/12 11:27:02;;;;;;;5.30;4.28;;;;;;;22.42;15.56;101342.47;6304753;22;20702;-90
2022/03/12 11:35:20;;;;;;;4.32;3.88;;;;;;;22.77;15.57;101334.53;6304202;22;20076;-86
2022/03/12 11:37:56;;;;;;;5.10;4.60;;;;;;;22.09;15.55;101335.94;6276911;22;20027;-89
2022/03/12 11:40:23;;;;;;;6.57;5.10;;;;;;;21.22;16.19;101332.69;6276097;22;20087;-88
2022/03/12 11:42:51;;;;;;;5.95;5.10;;;;;;;21.68;16.06;101329.84;6301430;22;20023;-88
2022/03/12 11:45:20;;;;;;;5.32;4.60;;;;;;;21.95;15.79;101314.38;6278247;22;20035;-90
2022/03/12 11:47:48;;;;;;;5.65;5.15;;;;;;;22.18;15.64;101318.66;6304210;22;20019;-88
2022/03/12 11:50:23;;;;;;;5.40;4.90;;;;;;;22.19;15.58;101317.72;6301064;22;20023;-88
2022/03/12 11:52:52;;;;;;;5.10;4.60;;;;;;;21.78;16.15;101320.50;6304506;22;20034;-87
2022/03/12 11:55:39;;;;;;;7.30;5.13;;;;;;;22.36;15.92;101321.41;6305176;22;20027;-87
2022/03/12 11:58:06;;;;;;;5.00;4.60;;;;;;;22.53;15.90;101309.91;6305748;22;20106;-87
2022/03/12 12:00:33;;;;;;;7.30;5.53;;;;;;;22.86;15.44;101318.06;6316060;22;20003;-93
2022/03/12 12:03:00;;;;;;;6.00;5.13;;;;;;;23.34;14.50;101301.47;6303138;22;20015;-91
2022/03/12 12:05:33;;;;;;;5.68;5.07;;;;;;;22.98;14.72;101315.72;6268892;22;20127;-86
2022/03/12 12:08:01;;;;;;;4.97;4.45;;;;;;;23.16;14.66;101311.28;6256961;22;20023;-87
2022/03/12 12:10:33;;;;;;;6.72;4.57;;;;;;;22.85;15.31;101312.81;6287941;22;20019;-89
2022/03/12 12:13:00;;;;;;;5.35;4.95;;;;;;;22.85;14.96;101316.34;6324757;22;20022;-88
2022/03/12 12:15:34;;;;;;;4.90;4.50;;;;;;;23.44;14.91;101310.69;6282892;22;20617;-86
2022/03/12 12:18:07;;;;;;;8.27;5.82;;;;;;;23.11;14.32;101311.47;6306358;22;20011;-86
2022/03/12 12:20:38;;;;;;;7.07;5.50;;;;;;;22.26;14.99;101310.28;6283214;22;20115;-85